createdAt,value
2023-03-07T00:00:54.036Z,18.38
2023-03-07T00:03:21.046Z,18.88
2023-03-07T00:05:47.667Z,18.95
2023-03-07T00:08:14.239Z,19.08
2023-03-07T00:10:40.865Z,20.30
2023-03-07T00:13:08.879Z,21.88
2023-03-07T00:15:37.870Z,21.27
2023-03-07T00:18:04.923Z,20.23
2023-03-07T00:20:31.527Z,20.10
2023-03-07T00:22:58.113Z,20.15
2023-03-07T00:25:24.634Z,21.45
2023-03-07T00:27:51.252Z,20.88
2023-03-07T00:30:17.917Z,20.90
2023-03-07T00:32:44.444Z,21.10
2023-03-07T00:35:11.000Z,20.35
2023-03-07T00:37:37.516Z,18.95
2023-03-07T00:40:06.234Z,18.73
2023-03-07T00:42:32.857Z,18.50
2023-03-07T00:44:59.393Z,21.33
2023-03-07T00:47:25.904Z,18.58
2023-03-07T00:49:52.466Z,18.70
2023-03-07T00:52:19.082Z,18.95
2023-03-07T00:54:45.673Z,20.40
2023-03-07T00:57:12.230Z,21.60
2023-03-07T00:59:38.825Z,19.92
2023-03-07T01:02:05.657Z,21.20
2023-03-07T01:04:32.339Z,20.90
2023-03-07T01:06:58.893Z,19.65
2023-03-07T01:09:25.455Z,20.77
2023-03-07T01:11:52.078Z,20.70
2023-03-07T01:14:18.632Z,21.23
2023-03-07T01:16:45.263Z,22.27
2023-03-07T01:19:12.836Z,20.00
2023-03-07T01:21:42.690Z,20.20
2023-03-07T01:24:14.138Z,20.23
2023-03-07T01:26:40.860Z,19.38
2023-03-07T01:29:08.963Z,19.80
2023-03-07T01:31:35.752Z,18.30
2023-03-07T01:34:02.955Z,20.13
2023-03-07T01:36:33.278Z,20.50
2023-03-07T01:39:05.068Z,22.27
2023-03-07T01:41:32.497Z,22.30
2023-03-07T01:44:05.399Z,22.40
2023-03-07T01:46:43.240Z,22.60
2023-03-07T01:49:24.907Z,23.83
2023-03-07T01:51:58.315Z,25.43
2023-03-07T01:54:26.388Z,25.53
2023-03-07T01:56:53.565Z,25.57
2023-03-07T01:59:29.106Z,25.70
2023-03-07T02:01:57.797Z,25.77
2023-03-07T02:04:32.397Z,26.97
2023-03-07T02:07:02.700Z,25.33
2023-03-07T02:09:31.338Z,24.83
2023-03-07T02:12:00.607Z,25.77
2023-03-07T02:14:27.569Z,24.57
2023-03-07T02:16:54.548Z,24.73
2023-03-07T02:19:33.314Z,24.50
2023-03-07T02:22:09.629Z,23.53
2023-03-07T02:24:48.782Z,24.93
2023-03-07T02:27:15.492Z,23.93
2023-03-07T02:29:42.523Z,24.17
2023-03-07T02:32:09.426Z,22.47
2023-03-07T02:34:36.256Z,21.97
2023-03-07T02:37:11.886Z,23.20
2023-03-07T02:39:44.163Z,21.93
2023-03-07T02:42:18.745Z,21.10
2023-03-07T02:44:46.816Z,21.23
2023-03-07T02:47:14.035Z,21.87
2023-03-07T02:49:40.650Z,21.30
2023-03-07T02:52:07.238Z,21.17
2023-03-07T02:54:33.820Z,20.67
2023-03-07T02:57:00.438Z,21.47
2023-03-07T02:59:27.032Z,21.87
2023-03-07T03:01:53.792Z,21.07
2023-03-07T03:04:20.358Z,22.13
2023-03-07T03:06:46.914Z,23.40
2023-03-07T03:09:13.749Z,22.80
2023-03-07T03:11:40.387Z,22.13
2023-03-07T03:14:06.975Z,20.27
2023-03-07T03:16:33.577Z,20.97
2023-03-07T03:19:00.364Z,21.57
2023-03-07T03:21:27.100Z,21.00
2023-03-07T03:23:53.679Z,21.27
2023-03-07T03:26:20.192Z,21.27
2023-03-07T03:28:46.780Z,20.73
2023-03-07T03:31:16.681Z,20.87
2023-03-07T03:33:44.646Z,24.90
2023-03-07T03:36:14.752Z,21.13
2023-03-07T03:38:41.672Z,20.63
2023-03-07T03:41:11.390Z,21.00
2023-03-07T03:43:38.009Z,20.77
2023-03-07T03:46:04.921Z,21.83
2023-03-07T03:48:31.536Z,20.47
2023-03-07T03:51:12.201Z,21.73
2023-03-07T03:53:40.069Z,22.47
2023-03-07T03:56:10.016Z,21.20
2023-03-07T03:58:36.740Z,20.00
2023-03-07T04:01:05.899Z,21.20
2023-03-07T04:03:34.240Z,21.23
2023-03-07T04:06:06.457Z,20.63
2023-03-07T04:08:34.239Z,20.53
2023-03-07T04:11:01.426Z,19.73
2023-03-07T04:13:28.577Z,17.73
2023-03-07T04:15:55.085Z,19.07
2023-03-07T04:18:22.725Z,17.90
2023-03-07T04:20:50.746Z,17.93
2023-03-07T04:23:18.826Z,18.93
2023-03-07T04:25:55.946Z,17.97
2023-03-07T04:28:24.764Z,18.40
2023-03-07T04:30:53.162Z,18.47
2023-03-07T04:33:20.562Z,19.83
2023-03-07T04:35:47.263Z,19.27
2023-03-07T04:38:15.707Z,20.47
2023-03-07T04:40:42.275Z,19.90
2023-03-07T04:43:08.816Z,17.80
2023-03-07T04:45:39.978Z,18.07
2023-03-07T04:48:06.972Z,18.57
2023-03-07T04:50:33.583Z,18.67
2023-03-07T04:53:00.150Z,19.60
2023-03-07T04:55:26.720Z,17.73
2023-03-07T04:57:53.337Z,18.93
2023-03-07T05:00:20.883Z,19.33
2023-03-07T05:02:48.632Z,21.30
2023-03-07T05:05:16.882Z,20.43
2023-03-07T05:07:44.418Z,20.70
2023-03-07T05:10:11.702Z,21.40
2023-03-07T05:12:38.296Z,20.97
2023-03-07T05:15:05.352Z,20.97
2023-03-07T05:17:31.923Z,21.67
2023-03-07T05:19:58.441Z,22.07
2023-03-07T05:22:25.043Z,19.67
2023-03-07T05:24:52.105Z,20.90
2023-03-07T05:27:18.660Z,21.40
2023-03-07T05:29:45.257Z,21.40
2023-03-07T05:32:11.913Z,20.03
2023-03-07T05:34:38.542Z,21.67
2023-03-07T05:37:05.269Z,19.90
2023-03-07T05:39:31.881Z,20.43
2023-03-07T05:41:58.468Z,18.80
2023-03-07T05:44:24.983Z,18.67
2023-03-07T05:46:52.021Z,19.27
2023-03-07T05:49:18.809Z,19.47
2023-03-07T05:51:45.326Z,20.20
2023-03-07T05:54:11.878Z,19.63
2023-03-07T05:56:38.381Z,20.73
2023-03-07T05:59:07.751Z,17.97
2023-03-07T06:01:34.736Z,18.93
2023-03-07T06:04:01.452Z,18.07
2023-03-07T06:06:28.090Z,18.67
2023-03-07T06:08:54.905Z,19.00
2023-03-07T06:11:21.430Z,19.87
2023-03-07T06:13:47.943Z,21.00
2023-03-07T06:16:14.544Z,20.07
2023-03-07T06:18:41.109Z,21.73
2023-03-07T06:21:09.006Z,21.23
2023-03-07T06:23:36.851Z,21.83
2023-03-07T06:26:04.939Z,21.67
2023-03-07T06:28:32.928Z,20.43
2023-03-07T06:30:59.931Z,22.57
2023-03-07T06:33:26.652Z,21.07
2023-03-07T06:35:53.264Z,20.30
2023-03-07T06:38:19.843Z,21.87
2023-03-07T06:40:55.640Z,21.83
2023-03-07T06:43:22.525Z,21.33
2023-03-07T06:45:49.122Z,20.83
2023-03-07T06:48:15.780Z,20.00
2023-03-07T06:50:42.280Z,20.30
2023-03-07T06:53:08.950Z,21.00
2023-03-07T06:55:35.785Z,19.03
2023-03-07T06:58:02.415Z,20.60
2023-03-07T07:00:29.231Z,18.40
2023-03-07T07:02:56.543Z,20.17
2023-03-07T07:05:23.237Z,19.83
2023-03-07T07:07:49.845Z,18.83
2023-03-07T07:10:16.592Z,18.40
2023-03-07T07:12:43.258Z,19.20
2023-03-07T07:15:10.344Z,18.77
2023-03-07T07:17:38.928Z,18.20
2023-03-07T07:20:06.971Z,17.40
2023-03-07T07:22:34.008Z,17.53
2023-03-07T07:25:00.571Z,17.33
2023-03-07T07:27:28.962Z,17.20
2023-03-07T07:29:55.559Z,18.40
2023-03-07T07:32:22.277Z,16.87
2023-03-07T07:34:48.959Z,17.60
2023-03-07T07:37:15.547Z,17.60
2023-03-07T07:39:43.946Z,16.93
2023-03-07T07:42:11.827Z,17.83
2023-03-07T07:44:38.643Z,18.80
2023-03-07T07:47:05.420Z,17.87
2023-03-07T07:49:32.020Z,18.30
2023-03-07T07:51:58.814Z,18.27
2023-03-07T07:54:25.807Z,18.10
2023-03-07T07:56:52.409Z,17.73
2023-03-07T07:59:19.046Z,16.15
2023-03-07T08:01:45.932Z,16.67
2023-03-07T08:04:12.546Z,15.88
2023-03-07T08:06:39.820Z,17.00
2023-03-07T08:09:06.681Z,15.25
2023-03-07T08:11:33.337Z,17.05
2023-03-07T08:14:02.470Z,14.93
2023-03-07T08:16:29.254Z,17.92
2023-03-07T08:18:57.331Z,17.00
2023-03-07T08:21:25.584Z,15.68
2023-03-07T08:23:56.151Z,16.40
2023-03-07T08:26:23.616Z,17.85
2023-03-07T08:28:50.281Z,18.73
2023-03-07T08:31:25.846Z,17.45
2023-03-07T08:33:53.237Z,17.80
2023-03-07T08:36:20.373Z,17.20
2023-03-07T08:38:54.370Z,17.85
2023-03-07T08:41:22.759Z,17.55
2023-03-07T08:43:49.674Z,18.15
2023-03-07T08:46:16.421Z,17.45
2023-03-07T08:48:43.046Z,17.20
2023-03-07T08:51:12.774Z,16.60
2023-03-07T08:53:39.355Z,17.33
2023-03-07T08:56:07.749Z,16.90
2023-03-07T08:58:34.560Z,18.25
2023-03-07T09:01:01.460Z,17.45
2023-03-07T09:03:28.092Z,16.55
2023-03-07T09:05:54.679Z,17.77
2023-03-07T09:08:21.413Z,16.92
2023-03-07T09:10:48.039Z,17.13
2023-03-07T09:13:15.689Z,18.20
2023-03-07T09:15:42.948Z,16.95
2023-03-07T09:18:10.580Z,18.02
2023-03-07T09:20:40.948Z,16.45
2023-03-07T09:23:08.223Z,16.55
2023-03-07T09:25:36.350Z,16.55
2023-03-07T09:28:04.858Z,15.88
2023-03-07T09:30:31.363Z,16.98
2023-03-07T09:32:58.140Z,16.40
2023-03-07T09:35:25.255Z,15.98
2023-03-07T09:37:51.894Z,16.67
2023-03-07T09:40:23.506Z,16.55
2023-03-07T09:43:19.066Z,17.52
2023-03-07T09:46:10.347Z,17.38
2023-03-07T09:49:06.124Z,16.50
2023-03-07T09:51:40.561Z,14.73
2023-03-07T09:54:21.622Z,15.50
2023-03-07T09:56:57.090Z,14.65
2023-03-07T09:59:41.143Z,14.52
2023-03-07T10:02:19.749Z,13.50
2023-03-07T10:05:21.017Z,12.48
2023-03-07T10:07:47.691Z,13.57
2023-03-07T10:10:40.164Z,12.00
2023-03-07T10:13:21.870Z,11.60
2023-03-07T10:15:52.605Z,11.80
2023-03-07T10:18:38.014Z,12.30
2023-03-07T10:21:33.170Z,12.75
2023-03-07T10:24:09.116Z,11.07
2023-03-07T10:26:47.850Z,10.77
2023-03-07T10:29:18.483Z,9.82
2023-03-07T10:31:52.050Z,10.23
2023-03-07T10:34:29.623Z,9.73
2023-03-07T10:37:16.698Z,9.30
2023-03-07T10:39:50.207Z,8.25
2023-03-07T10:42:19.076Z,8.70
2023-03-07T10:44:48.915Z,9.63
2023-03-07T10:47:26.862Z,9.70
2023-03-07T10:50:00.393Z,7.72
2023-03-07T10:52:39.715Z,8.85
2023-03-07T10:55:33.498Z,9.00
2023-03-07T10:58:32.361Z,7.80
2023-03-07T11:01:08.185Z,8.00
2023-03-07T11:03:58.711Z,9.00
2023-03-07T11:06:40.281Z,9.32
2023-03-07T11:09:27.866Z,8.52
2023-03-07T11:11:59.862Z,8.75
2023-03-07T11:14:28.842Z,8.57
2023-03-07T11:16:59.252Z,8.77
2023-03-07T11:19:42.052Z,8.48
2023-03-07T11:22:34.285Z,9.35
2023-03-07T11:25:10.711Z,8.52
2023-03-07T11:27:46.850Z,8.60
2023-03-07T11:30:20.880Z,8.18
2023-03-07T11:33:02.887Z,8.82
2023-03-07T11:35:43.064Z,9.57
2023-03-07T11:38:34.348Z,8.43
2023-03-07T11:41:11.772Z,8.30
2023-03-07T11:43:56.726Z,8.25
2023-03-07T11:46:55.117Z,8.13
2023-03-07T11:49:59.537Z,7.50
2023-03-07T11:53:08.717Z,9.52
2023-03-07T11:56:05.125Z,8.43
2023-03-07T11:59:07.065Z,9.23
2023-03-07T12:01:59.279Z,9.52
2023-03-07T12:04:37.763Z,11.10
2023-03-07T12:07:19.462Z,12.05
2023-03-07T12:09:55.184Z,13.27
2023-03-07T12:12:39.756Z,15.27
2023-03-07T12:15:39.012Z,17.50
2023-03-07T12:18:18.096Z,19.10
2023-03-07T12:20:47.574Z,21.17
2023-03-07T12:23:20.176Z,21.77
2023-03-07T12:25:52.541Z,22.33
2023-03-07T12:28:32.641Z,21.48
2023-03-07T12:31:26.942Z,21.08
2023-03-07T12:33:59.543Z,23.25
2023-03-07T12:36:45.066Z,24.35
2023-03-07T12:39:42.512Z,25.85
2023-03-07T12:42:35.129Z,26.27
2023-03-07T12:45:11.352Z,26.88
2023-03-07T12:47:50.489Z,25.73
2023-03-07T12:50:41.507Z,27.95
2023-03-07T12:53:38.041Z,26.83
2023-03-07T12:56:16.701Z,26.15
2023-03-07T12:58:59.314Z,24.58
2023-03-07T13:01:37.088Z,25.95
2023-03-07T13:04:06.478Z,26.10
2023-03-07T13:06:34.448Z,26.75
2023-03-07T13:09:04.086Z,26.10
2023-03-07T13:11:34.308Z,26.27
2023-03-07T13:14:05.402Z,27.52
2023-03-07T13:16:46.673Z,27.70
2023-03-07T13:19:35.294Z,27.48
2023-03-07T13:22:21.782Z,28.17
2023-03-07T13:24:49.791Z,27.30
2023-03-07T13:27:30.843Z,27.50
2023-03-07T13:30:12.537Z,27.88
2023-03-07T13:32:48.434Z,28.15
2023-03-07T13:35:36.918Z,29.73
2023-03-07T13:38:15.507Z,28.10
2023-03-07T13:40:45.052Z,28.13
2023-03-07T13:43:54.624Z,31.42
2023-03-07T13:46:42.264Z,32.72
2023-03-07T13:49:08.821Z,30.38
2023-03-07T13:51:35.407Z,32.80
2023-03-07T13:54:11.563Z,32.20
2023-03-07T13:56:42.320Z,30.58
2023-03-07T13:59:14.657Z,32.83
2023-03-07T14:01:55.831Z,33.30
2023-03-07T14:04:39.472Z,33.08
2023-03-07T14:07:26.285Z,30.38
2023-03-07T14:10:21.801Z,33.90
2023-03-07T14:13:07.819Z,33.35
2023-03-07T14:15:52.451Z,33.92
2023-03-07T14:18:43.781Z,33.88
2023-03-07T14:21:38.656Z,33.70
2023-03-07T14:24:11.052Z,33.80
2023-03-07T14:26:50.201Z,33.88
2023-03-07T14:29:22.236Z,34.13
2023-03-07T14:31:51.437Z,33.97
2023-03-07T14:34:24.098Z,33.05
2023-03-07T14:36:55.928Z,34.30
2023-03-07T14:39:23.829Z,35.10
2023-03-07T14:42:07.388Z,36.63
2023-03-07T14:44:45.648Z,34.70
2023-03-07T14:47:47.348Z,35.78
2023-03-07T14:50:20.337Z,35.67
2023-03-07T14:52:48.348Z,35.05
2023-03-07T14:55:21.426Z,36.45
2023-03-07T14:57:53.118Z,34.88
2023-03-07T15:00:29.622Z,35.35
2023-03-07T15:02:57.573Z,34.60
2023-03-07T15:05:27.744Z,32.25
2023-03-07T15:07:55.113Z,32.58
2023-03-07T15:10:37.759Z,31.40
2023-03-07T15:13:07.821Z,30.42
2023-03-07T15:15:48.956Z,30.25
2023-03-07T15:18:27.472Z,29.80
2023-03-07T15:20:56.588Z,31.70
2023-03-07T15:23:27.605Z,32.90
2023-03-07T15:26:02.040Z,31.15
2023-03-07T15:28:33.599Z,32.83
2023-03-07T15:31:00.806Z,31.55
2023-03-07T15:33:30.754Z,30.60
2023-03-07T15:36:12.391Z,30.77
2023-03-07T15:38:41.453Z,29.70
2023-03-07T15:41:26.536Z,31.40
2023-03-07T15:46:51.175Z,31.08
2023-03-07T15:49:26.061Z,33.45
2023-03-07T15:51:59.165Z,34.97
2023-03-07T15:54:33.525Z,34.63
2023-03-07T15:57:04.820Z,34.83
2023-03-07T15:59:32.988Z,36.90
2023-03-07T16:02:34.966Z,35.47
2023-03-07T16:05:29.037Z,33.90
2023-03-07T16:07:57.586Z,32.58
2023-03-07T16:10:28.309Z,32.63
2023-03-07T16:12:55.767Z,36.83
2023-03-07T16:15:24.053Z,35.67
2023-03-07T16:17:55.049Z,33.30
2023-03-07T16:20:25.140Z,32.45
2023-03-07T16:22:52.318Z,33.95
2023-03-07T16:25:20.739Z,32.67
2023-03-07T16:27:52.713Z,31.63
2023-03-07T16:30:22.857Z,31.00
2023-03-07T16:32:50.020Z,30.90
2023-03-07T16:35:25.801Z,29.92
2023-03-07T16:37:53.667Z,31.80
2023-03-07T16:40:20.851Z,29.80
2023-03-07T16:42:50.641Z,28.95
2023-03-07T16:45:24.767Z,30.90
2023-03-07T16:47:53.820Z,30.75
2023-03-07T16:50:24.095Z,29.30
2023-03-07T16:52:50.601Z,29.95
2023-03-07T16:55:17.734Z,30.13
2023-03-07T16:57:47.494Z,27.92
2023-03-07T17:00:17.435Z,29.48
2023-03-07T17:02:45.376Z,30.13
2023-03-07T17:05:20.912Z,31.70
2023-03-07T17:07:47.572Z,30.85
2023-03-07T17:10:14.615Z,31.85
2023-03-07T17:12:42.606Z,32.28
2023-03-07T17:15:13.907Z,31.92
2023-03-07T17:17:40.975Z,33.35
2023-03-07T17:20:08.333Z,33.67
2023-03-07T17:22:35.034Z,32.05
2023-03-07T17:25:01.626Z,32.92
2023-03-07T17:27:28.443Z,32.80
2023-03-07T17:29:55.213Z,29.83
2023-03-07T17:32:22.011Z,28.88
2023-03-07T17:34:48.631Z,28.55
2023-03-07T17:37:15.326Z,25.70
2023-03-07T17:39:42.531Z,25.65
2023-03-07T17:42:09.618Z,23.63
2023-03-07T17:44:36.259Z,24.30
2023-03-07T17:47:02.905Z,23.15
2023-03-07T17:49:34.857Z,25.63
2023-03-07T17:52:02.456Z,24.45
2023-03-07T17:54:31.149Z,24.77
2023-03-07T17:56:57.745Z,27.50
2023-03-07T17:59:24.402Z,25.10
2023-03-07T18:01:51.049Z,24.38
2023-03-07T18:04:17.623Z,25.45
2023-03-07T18:06:44.212Z,24.85
2023-03-07T18:09:10.873Z,26.48
2023-03-07T18:11:37.474Z,23.83
2023-03-07T18:14:04.035Z,23.00
2023-03-07T18:16:30.937Z,22.98
2023-03-07T18:19:00.014Z,21.15
2023-03-07T18:21:29.704Z,20.25
2023-03-07T18:23:57.110Z,21.42
2023-03-07T18:26:23.730Z,21.58
2023-03-07T18:28:53.261Z,21.30
2023-03-07T18:31:30.755Z,19.15
2023-03-07T18:33:57.425Z,21.30
2023-03-07T18:36:25.476Z,21.35
2023-03-07T18:38:52.605Z,19.95
2023-03-07T18:41:21.770Z,19.73
2023-03-07T18:43:48.699Z,20.75
2023-03-07T18:46:17.887Z,19.67
2023-03-07T18:48:44.897Z,19.50
2023-03-07T18:51:14.573Z,20.40
2023-03-07T18:53:41.435Z,19.83
2023-03-07T18:56:18.417Z,22.63
2023-03-07T18:58:46.323Z,27.98
2023-03-07T19:01:18.696Z,19.58
2023-03-07T19:03:47.355Z,20.58
2023-03-07T19:06:16.516Z,19.92
2023-03-07T19:08:43.227Z,19.13
2023-03-07T19:11:12.068Z,19.73
2023-03-07T19:13:39.333Z,21.70
2023-03-07T19:16:15.340Z,20.05
2023-03-07T19:18:43.316Z,21.27
2023-03-07T19:21:15.446Z,20.58
2023-03-07T19:23:42.519Z,21.40
2023-03-07T19:26:12.292Z,19.90
2023-03-07T19:28:40.305Z,21.25
2023-03-07T19:31:29.824Z,22.17
2023-03-07T19:33:57.429Z,22.42
2023-03-07T19:36:29.293Z,21.50
2023-03-07T19:38:59.007Z,21.15
2023-03-07T19:41:27.558Z,20.50
2023-03-07T19:43:56.101Z,21.00
2023-03-07T19:46:23.010Z,22.27
2023-03-07T19:48:49.738Z,22.80
2023-03-07T19:51:22.555Z,23.90
2023-03-07T19:53:49.645Z,23.27
2023-03-07T19:56:23.568Z,25.10
2023-03-07T19:58:50.794Z,21.88
2023-03-07T20:01:20.062Z,23.02
2023-03-07T20:03:47.363Z,23.85
2023-03-07T20:06:19.968Z,26.00
2023-03-07T20:08:51.242Z,23.67
2023-03-07T20:11:20.496Z,32.63
2023-03-07T20:13:48.504Z,27.98
2023-03-07T20:16:17.020Z,27.38
2023-03-07T20:18:43.873Z,26.73
2023-03-07T20:21:14.707Z,28.58
2023-03-07T20:23:44.687Z,31.77
2023-03-07T20:26:14.089Z,32.90
2023-03-07T20:28:41.275Z,35.80
2023-03-07T20:31:09.729Z,33.70
2023-03-07T20:33:38.477Z,34.03
2023-03-07T20:36:06.940Z,32.28
2023-03-07T20:38:37.592Z,35.78
2023-03-07T20:41:06.583Z,34.95
2023-03-07T20:43:33.924Z,34.67
2023-03-07T20:46:13.028Z,32.08
2023-03-07T20:48:40.831Z,32.80
2023-03-07T20:51:18.846Z,31.80
2023-03-07T20:53:51.175Z,31.80
2023-03-07T20:56:18.552Z,32.55
2023-03-07T20:58:45.282Z,30.40
2023-03-07T21:01:15.105Z,32.90
2023-03-07T21:03:41.857Z,34.70
2023-03-07T21:06:08.404Z,38.78
2023-03-07T21:08:36.663Z,39.45
2023-03-07T21:11:05.993Z,37.90
2023-03-07T21:13:35.916Z,38.40
2023-03-07T21:16:09.953Z,39.03
2023-03-07T21:18:37.136Z,38.38
2023-03-07T21:21:06.283Z,38.47
2023-03-07T21:23:33.352Z,43.45
2023-03-07T21:26:08.551Z,43.17
2023-03-07T21:28:35.516Z,45.08
2023-03-07T21:31:04.753Z,47.08
2023-03-07T21:33:32.252Z,45.35
2023-03-07T21:35:58.843Z,44.70
2023-03-07T21:38:26.102Z,39.80
2023-03-07T21:40:55.809Z,35.45
2023-03-07T21:43:22.452Z,37.47
2023-03-07T21:45:49.128Z,38.05
2023-03-07T21:48:19.403Z,36.75
2023-03-07T21:50:48.193Z,37.05
2023-03-07T21:53:14.778Z,38.65
2023-03-07T21:55:49.401Z,38.95
2023-03-07T21:58:15.931Z,39.00
2023-03-07T22:00:43.150Z,44.03
2023-03-07T22:03:09.799Z,43.28
2023-03-07T22:05:39.855Z,45.10
2023-03-07T22:08:06.856Z,45.22
2023-03-07T22:10:33.759Z,45.67
2023-03-07T22:13:00.718Z,46.17
2023-03-07T22:15:27.720Z,44.42
2023-03-07T22:17:54.320Z,43.42
2023-03-07T22:20:20.859Z,43.15
2023-03-07T22:22:47.549Z,40.63
2023-03-07T22:25:14.300Z,41.05
2023-03-07T22:27:43.524Z,41.25
2023-03-07T22:30:11.109Z,41.35
2023-03-07T22:32:37.789Z,40.30
2023-03-07T22:35:04.674Z,42.10
2023-03-07T22:37:31.164Z,43.00
2023-03-07T22:39:57.736Z,44.95
2023-03-07T22:42:24.282Z,43.58
2023-03-07T22:44:50.760Z,42.88
2023-03-07T22:47:17.313Z,46.17
2023-03-07T22:49:44.095Z,43.25
2023-03-07T22:52:10.892Z,45.30
2023-03-07T22:54:39.370Z,45.45
2023-03-07T22:57:05.962Z,46.05
2023-03-07T22:59:33.108Z,43.42
2023-03-07T23:01:59.640Z,41.28
2023-03-07T23:04:27.155Z,42.85
2023-03-07T23:06:53.869Z,40.30
2023-03-07T23:09:20.432Z,39.25
2023-03-07T23:11:48.225Z,36.92
2023-03-07T23:14:15.638Z,34.50
2023-03-07T23:16:42.754Z,30.63
2023-03-07T23:19:09.370Z,29.70
2023-03-07T23:21:36.035Z,27.45
2023-03-07T23:24:03.794Z,29.23
2023-03-07T23:26:36.965Z,29.85
2023-03-07T23:29:05.742Z,29.10
2023-03-07T23:31:36.445Z,27.38
2023-03-07T23:34:06.608Z,27.33
2023-03-07T23:36:34.008Z,26.33
2023-03-07T23:39:00.847Z,25.30
2023-03-07T23:41:27.900Z,22.73
2023-03-07T23:43:59.549Z,21.80
2023-03-07T23:46:27.389Z,21.50
2023-03-07T23:48:55.098Z,20.27
2023-03-07T23:51:22.448Z,20.67
2023-03-07T23:53:49.266Z,20.77
2023-03-07T23:56:16.140Z,20.63
2023-03-07T23:58:44.057Z,20.13
